Time;durP1;ratioP1;P1;durP2;ratioP2;P2;SDS_P1;SDS_P2;PMS_P1;PMS_P2;Temp;Humidity;BMP_temperature;BMP_pressure;BME280_temperature;BME280_humidity;BME280_pressure;Samples;Min_cycle;Max_cycle;Signal;HPM_P1;HPM_P2
2022/03/17 00:00:13;;;;;;;;;;;22.80;99.90;;;;;;5051535;28;19913;-71
2022/03/17 00:02:45;;;;;;;;;;;22.80;99.90;;;;;;5051901;28;19913;-71
2022/03/17 00:05:12;;;;;;;;;;;22.90;99.90;;;;;;5051518;28;19913;-71
2022/03/17 00:07:39;;;;;;;;;;;22.90;99.90;;;;;;5052046;28;19909;-71
2022/03/17 00:10:07;;;;;;;;;;;22.90;99.90;;;;;;5051656;28;19909;-71
2022/03/17 00:12:34;;;;;;;;;;;23.00;99.90;;;;;;5033916;28;20316;-71
2022/03/17 00:15:01;;;;;;;;;;;23.00;99.90;;;;;;5050559;28;19936;-71
2022/03/17 00:17:28;;;;;;;;;;;23.10;99.90;;;;;;5055337;28;20333;-71
2022/03/17 00:19:55;;;;;;;;;;;23.10;99.90;;;;;;5056040;28;19966;-71
2022/03/17 00:22:22;;;;;;;;;;;23.10;99.90;;;;;;5055668;28;19923;-71
2022/03/17 00:24:48;;;;;;;;;;;23.10;99.90;;;;;;5054988;28;20330;-71
2022/03/17 00:27:15;;;;;;;;;;;23.20;99.90;;;;;;5055702;28;19909;-71
2022/03/17 00:29:42;;;;;;;;;;;23.20;99.90;;;;;;5055543;28;19915;-71
2022/03/17 00:32:09;;;;;;;;;;;23.20;99.90;;;;;;5055699;28;19916;-71
2022/03/17 00:37:25;;;;;;;;;;;23.10;99.90;;;;;;5055843;28;20282;-71
2022/03/17 00:39:55;;;;;;;;;;;23.10;99.90;;;;;;5037480;28;19916;-71
2022/03/17 00:42:22;;;;;;;;;;;23.20;99.90;;;;;;5055252;28;19927;-70
2022/03/17 00:44:50;;;;;;;;;;;23.50;99.90;;;;;;5055560;28;20381;-71
2022/03/17 00:47:17;;;;;;;;;;;23.60;99.90;;;;;;5055508;28;19963;-71
2022/03/17 00:49:44;;;;;;;;;;;23.80;99.90;;;;;;5055221;28;19920;-71
2022/03/17 00:52:11;;;;;;;;;;;23.80;99.90;;;;;;5053998;28;19909;-70
2022/03/17 00:54:41;;;;;;;;;;;23.90;99.90;;;;;;5055367;28;20288;-70
2022/03/17 00:57:12;;;;;;;;;;;23.80;99.90;;;;;;5055338;28;19979;-70
2022/03/17 00:59:40;;;;;;;;;;;23.90;99.90;;;;;;5055084;28;19909;-70
2022/03/17 01:02:07;;;;;;;;;;;24.00;99.90;;;;;;5055015;28;19909;-70
2022/03/17 01:04:35;;;;;;;;;;;24.20;99.90;;;;;;5055218;28;19954;-70
2022/03/17 01:07:07;;;;;;;;;;;24.20;99.90;;;;;;5055077;28;19909;-71
2022/03/17 01:09:34;;;;;;;;;;;24.30;99.90;;;;;;5054977;28;20278;-70
2022/03/17 01:12:02;;;;;;;;;;;24.50;99.90;;;;;;5054026;28;20778;-70
2022/03/17 01:14:28;;;;;;;;;;;24.60;99.90;;;;;;5053653;28;20287;-70
2022/03/17 01:16:57;;;;;;;;;;;24.70;99.90;;;;;;5036220;28;20371;-70
2022/03/17 01:19:26;;;;;;;;;;;24.90;99.90;;;;;;5055227;28;19978;-71
2022/03/17 01:21:53;;;;;;;;;;;25.30;99.90;;;;;;5055147;28;19909;-71
2022/03/17 01:24:20;;;;;;;;;;;25.70;99.90;;;;;;5054769;28;19916;-71
2022/03/17 01:26:49;;;;;;;;;;;26.00;99.90;;;;;;5055112;28;19955;-71
2022/03/17 01:29:16;;;;;;;;;;;25.90;99.90;;;;;;5054145;28;19915;-71
2022/03/17 01:31:45;;;;;;;;;;;26.00;99.90;;;;;;5055004;28;19917;-71
2022/03/17 01:34:12;;;;;;;;;;;26.00;99.90;;;;;;5054920;28;19909;-71
2022/03/17 01:36:40;;;;;;;;;;;26.20;99.90;;;;;;5054804;28;19909;-71
2022/03/17 01:39:07;;;;;;;;;;;26.30;99.90;;;;;;5054834;28;20300;-71
2022/03/17 01:41:34;;;;;;;;;;;26.70;99.90;;;;;;5054985;28;19916;-70
2022/03/17 01:44:01;;;;;;;;;;;26.70;99.90;;;;;;5054480;28;19915;-70
2022/03/17 01:46:28;;;;;;;;;;;26.40;99.90;;;;;;5054758;28;19916;-71
2022/03/17 01:48:55;;;;;;;;;;;26.20;99.90;;;;;;5054484;28;19945;-71
2022/03/17 01:51:21;;;;;;;;;;;25.90;99.90;;;;;;5053826;28;19913;-71
2022/03/17 01:53:48;;;;;;;;;;;25.80;99.90;;;;;;5035621;28;19912;-69
2022/03/17 01:56:16;;;;;;;;;;;25.70;99.90;;;;;;5054601;28;19908;-70
2022/03/17 01:58:44;;;;;;;;;;;25.60;99.90;;;;;;5054216;28;20382;-70
2022/03/17 02:01:11;;;;;;;;;;;25.40;99.90;;;;;;5054476;28;19944;-70
2022/03/17 02:03:43;;;;;;;;;;;25.60;99.90;;;;;;5054489;28;19935;-71
2022/03/17 02:06:12;;;;;;;;;;;25.50;99.90;;;;;;5053978;28;19916;-70
2022/03/17 02:08:38;;;;;;;;;;;25.40;99.90;;;;;;5036493;28;19955;-70
2022/03/17 02:13:50;;;;;;;;;;;25.20;99.90;;;;;;5054594;28;19962;-71
2022/03/17 02:16:17;;;;;;;;;;;25.20;99.90;;;;;;5053893;28;19931;-70
2022/03/17 02:18:46;;;;;;;;;;;25.20;99.90;;;;;;5053220;28;19924;-70
2022/03/17 02:21:12;;;;;;;;;;;25.40;99.90;;;;;;5053983;28;19909;-70
2022/03/17 02:26:26;;;;;;;;;;;25.40;99.90;;;;;;5053983;28;20389;-71
2022/03/17 02:28:52;;;;;;;;;;;25.40;99.90;;;;;;5036215;28;19913;-71
2022/03/17 02:31:19;;;;;;;;;;;25.40;99.90;;;;;;5054020;28;19916;-71
2022/03/17 02:33:46;;;;;;;;;;;25.50;99.90;;;;;;5053882;28;20787;-71
2022/03/17 02:36:13;;;;;;;;;;;25.50;99.90;;;;;;5052134;28;19913;-71
2022/03/17 02:38:40;;;;;;;;;;;25.50;99.90;;;;;;5053722;28;20019;-71
2022/03/17 02:41:07;;;;;;;;;;;25.40;99.90;;;;;;5052953;28;20393;-71
2022/03/17 02:43:33;;;;;;;;;;;25.40;99.90;;;;;;5053711;28;19909;-71
2022/03/17 02:46:00;;;;;;;;;;;25.60;99.90;;;;;;5053854;28;19916;-71
2022/03/17 02:48:27;;;;;;;;;;;25.50;99.90;;;;;;5053468;28;19962;-70
2022/03/17 02:50:53;;;;;;;;;;;25.60;99.90;;;;;;5053438;28;19912;-71
2022/03/17 02:53:20;;;;;;;;;;;25.60;99.90;;;;;;5053401;28;20279;-70
2022/03/17 02:55:47;;;;;;;;;;;25.40;99.90;;;;;;5053263;28;19909;-71
2022/03/17 02:58:14;;;;;;;;;;;25.40;99.90;;;;;;5053098;28;19916;-70
2022/03/17 03:00:41;;;;;;;;;;;25.30;99.90;;;;;;5053555;28;19908;-70
2022/03/17 03:03:07;;;;;;;;;;;25.50;99.90;;;;;;5053420;28;19909;-71
2022/03/17 03:05:34;;;;;;;;;;;25.40;99.90;;;;;;5053186;28;19909;-71
2022/03/17 03:08:02;;;;;;;;;;;25.30;99.90;;;;;;5053285;28;19966;-71
2022/03/17 03:10:29;;;;;;;;;;;25.30;99.90;;;;;;5053218;28;19916;-70
2022/03/17 03:12:55;;;;;;;;;;;25.30;99.90;;;;;;5052864;28;19915;-70
2022/03/17 03:15:22;;;;;;;;;;;25.30;99.90;;;;;;5053179;28;20000;-71
2022/03/17 03:17:49;;;;;;;;;;;25.20;99.90;;;;;;5052879;28;19966;-71
2022/03/17 03:20:16;;;;;;;;;;;25.40;99.90;;;;;;5052764;28;19913;-70
2022/03/17 03:22:42;;;;;;;;;;;25.40;99.90;;;;;;5053007;28;19995;-70
2022/03/17 03:25:09;;;;;;;;;;;25.30;99.90;;;;;;5053156;28;19954;-71
2022/03/17 03:27:39;;;;;;;;;;;25.20;99.90;;;;;;5052716;28;19909;-71
2022/03/17 03:30:08;;;;;;;;;;;25.30;99.90;;;;;;5052879;28;19909;-70
2022/03/17 03:32:36;;;;;;;;;;;25.30;99.90;;;;;;5052794;28;19909;-71
2022/03/17 03:37:22;;;;;;;;;;;25.20;99.90;;;;;;5052492;28;19909;-70
2022/03/17 03:37:49;;;;;;;;;;;25.10;99.90;;;;;;5052264;28;19960;-70
2022/03/17 03:40:16;;;;;;;;;;;25.10;99.90;;;;;;5052426;28;20007;-70
2022/03/17 03:42:43;;;;;;;;;;;25.20;99.90;;;;;;5052580;28;19920;-71
2022/03/17 03:45:10;;;;;;;;;;;25.10;99.90;;;;;;5052570;28;19920;-71
2022/03/17 03:47:36;;;;;;;;;;;25.00;99.90;;;;;;5052539;28;19909;-71
2022/03/17 03:50:03;;;;;;;;;;;25.00;99.90;;;;;;5052276;28;20382;-70
2022/03/17 03:52:30;;;;;;;;;;;25.00;99.90;;;;;;5051912;28;20046;-70
2022/03/17 03:54:57;;;;;;;;;;;25.10;99.90;;;;;;5052561;28;19909;-70
2022/03/17 03:57:24;;;;;;;;;;;25.20;99.90;;;;;;5052032;28;20412;-70
2022/03/17 03:59:51;;;;;;;;;;;25.20;99.90;;;;;;5052237;28;19908;-70
2022/03/17 04:02:18;;;;;;;;;;;25.10;99.90;;;;;;5052162;28;19919;-71
2022/03/17 04:04:45;;;;;;;;;;;25.10;99.90;;;;;;5052142;28;20000;-70
2022/03/17 04:07:12;;;;;;;;;;;25.10;99.90;;;;;;5052358;28;19913;-70
2022/03/17 04:09:40;;;;;;;;;;;25.10;99.90;;;;;;5052415;28;19909;-70
2022/03/17 04:12:08;;;;;;;;;;;25.10;99.90;;;;;;5051753;28;20298;-71
2022/03/17 04:14:34;;;;;;;;;;;25.10;99.90;;;;;;5052260;28;19920;-70
2022/03/17 04:17:01;;;;;;;;;;;25.00;99.90;;;;;;5051686;28;19925;-70
2022/03/17 04:19:28;;;;;;;;;;;25.00;99.90;;;;;;5052327;28;19915;-70
2022/03/17 04:21:55;;;;;;;;;;;25.00;99.90;;;;;;5052330;28;19912;-70
2022/03/17 04:24:22;;;;;;;;;;;25.00;99.90;;;;;;5051635;28;19913;-70
2022/03/17 04:26:49;;;;;;;;;;;25.00;99.90;;;;;;5051978;28;19909;-70
2022/03/17 04:29:16;;;;;;;;;;;25.00;99.90;;;;;;5052143;28;19954;-70
2022/03/17 04:31:44;;;;;;;;;;;25.00;99.90;;;;;;5052334;28;19986;-70
2022/03/17 04:34:11;;;;;;;;;;;24.80;99.90;;;;;;5051664;28;19994;-70
2022/03/17 04:36:37;;;;;;;;;;;24.80;99.90;;;;;;5051852;28;19909;-70
2022/03/17 04:39:05;;;;;;;;;;;24.80;99.90;;;;;;5052100;28;19927;-70
2022/03/17 04:41:32;;;;;;;;;;;24.90;99.90;;;;;;5051838;28;19912;-70
2022/03/17 04:43:58;;;;;;;;;;;24.90;99.90;;;;;;5051826;28;20021;-70
2022/03/17 04:46:25;;;;;;;;;;;25.00;99.90;;;;;;5051322;28;19912;-70
2022/03/17 04:48:52;;;;;;;;;;;25.00;99.90;;;;;;5052051;28;19913;-70
2022/03/17 04:51:18;;;;;;;;;;;25.00;99.90;;;;;;5052032;28;19909;-70
2022/03/17 04:53:45;;;;;;;;;;;25.00;99.90;;;;;;5051746;28;20279;-70
2022/03/17 04:56:14;;;;;;;;;;;25.00;99.90;;;;;;5051483;28;19917;-70
2022/03/17 04:58:42;;;;;;;;;;;24.90;99.90;;;;;;5051766;28;19960;-70
2022/03/17 05:01:09;;;;;;;;;;;24.90;99.90;;;;;;5051940;28;20462;-70
2022/03/17 05:03:37;;;;;;;;;;;24.80;99.90;;;;;;5053659;28;20367;-71
2022/03/17 05:06:04;;;;;;;;;;;24.90;99.90;;;;;;5055493;28;19913;-71
2022/03/17 05:08:34;;;;;;;;;;;24.90;99.90;;;;;;5055663;28;19912;-71
2022/03/17 05:11:02;;;;;;;;;;;24.90;99.90;;;;;;5055466;28;19913;-71
2022/03/17 05:13:29;;;;;;;;;;;25.00;99.90;;;;;;5055198;28;19909;-71
2022/03/17 05:15:56;;;;;;;;;;;24.90;99.90;;;;;;5055298;28;19909;-71
2022/03/17 05:18:22;;;;;;;;;;;24.90;99.90;;;;;;5055137;28;19932;-71
2022/03/17 05:20:49;;;;;;;;;;;24.90;99.90;;;;;;5055159;28;20003;-71
2022/03/17 05:23:17;;;;;;;;;;;24.80;99.90;;;;;;5055362;28;19909;-71
2022/03/17 05:25:44;;;;;;;;;;;24.80;99.90;;;;;;5055180;28;19990;-71
2022/03/17 05:28:11;;;;;;;;;;;24.80;99.90;;;;;;5054672;28;19913;-71
2022/03/17 05:30:38;;;;;;;;;;;24.80;99.90;;;;;;5055280;28;20043;-71
2022/03/17 05:33:05;;;;;;;;;;;24.80;99.90;;;;;;5054745;28;19908;-71
2022/03/17 05:35:32;;;;;;;;;;;24.90;99.90;;;;;;5054440;28;19909;-70
2022/03/17 05:38:00;;;;;;;;;;;24.90;99.90;;;;;;5055128;28;19916;-70
2022/03/17 05:40:27;;;;;;;;;;;24.80;99.90;;;;;;5054734;28;19909;-70
2022/03/17 05:42:59;;;;;;;;;;;24.80;99.90;;;;;;5054594;28;19955;-70
2022/03/17 05:45:27;;;;;;;;;;;24.70;99.90;;;;;;5054920;28;19909;-71
2022/03/17 05:47:58;;;;;;;;;;;24.70;99.90;;;;;;5054559;28;20290;-70
2022/03/17 05:50:25;;;;;;;;;;;24.60;99.90;;;;;;5054202;28;20401;-71
2022/03/17 05:52:52;;;;;;;;;;;24.70;99.90;;;;;;5051945;28;19916;-71
2022/03/17 05:55:20;;;;;;;;;;;24.60;99.90;;;;;;5052623;28;19940;-70
2022/03/17 05:57:47;;;;;;;;;;;24.60;99.90;;;;;;5052237;28;19921;-70
2022/03/17 06:00:18;;;;;;;;;;;24.60;99.90;;;;;;5052079;28;19941;-70
2022/03/17 06:02:45;;;;;;;;;;;24.60;99.90;;;;;;5052086;28;20274;-70
2022/03/17 06:05:12;;;;;;;;;;;24.50;99.90;;;;;;5052074;28;19939;-71
2022/03/17 06:07:42;;;;;;;;;;;24.50;99.90;;;;;;5052441;28;19912;-71
2022/03/17 06:10:10;;;;;;;;;;;24.50;99.90;;;;;;5051989;28;20073;-71
2022/03/17 06:12:37;;;;;;;;;;;24.50;99.90;;;;;;5051812;28;19909;-70
2022/03/17 06:15:04;;;;;;;;;;;24.40;99.90;;;;;;5051831;28;19916;-70
2022/03/17 06:17:44;;;;;;;;;;;24.30;99.90;;;;;;5051413;28;19982;-70
2022/03/17 06:20:12;;;;;;;;;;;24.20;99.90;;;;;;5051775;28;19917;-70
2022/03/17 06:22:40;;;;;;;;;;;24.20;99.90;;;;;;5051961;28;20267;-70
2022/03/17 06:25:07;;;;;;;;;;;24.20;99.90;;;;;;5051946;28;19909;-71
2022/03/17 06:27:37;;;;;;;;;;;24.10;99.90;;;;;;5051891;28;20362;-70
2022/03/17 06:30:04;;;;;;;;;;;24.10;99.90;;;;;;5051521;28;19999;-71
2022/03/17 06:32:32;;;;;;;;;;;24.00;99.90;;;;;;5051687;28;19917;-70
2022/03/17 06:34:58;;;;;;;;;;;24.00;99.90;;;;;;5051767;28;19909;-70
2022/03/17 06:37:25;;;;;;;;;;;24.00;99.90;;;;;;5051613;28;19920;-71
2022/03/17 06:39:53;;;;;;;;;;;24.00;99.90;;;;;;5051571;28;19916;-69
2022/03/17 06:42:21;;;;;;;;;;;24.00;99.90;;;;;;5051502;28;19961;-71
2022/03/17 06:44:47;;;;;;;;;;;24.00;99.90;;;;;;5049879;28;19982;-71
2022/03/17 06:47:14;;;;;;;;;;;24.10;99.90;;;;;;5051506;28;19913;-71
2022/03/17 06:49:51;;;;;;;;;;;24.10;99.90;;;;;;5051623;28;19931;-70
2022/03/17 06:52:24;;;;;;;;;;;24.00;99.90;;;;;;5050989;28;19912;-72
2022/03/17 06:54:54;;;;;;;;;;;24.00;99.90;;;;;;5051543;28;19913;-71
2022/03/17 06:57:22;;;;;;;;;;;24.00;99.90;;;;;;5050771;28;19925;-71
2022/03/17 06:59:49;;;;;;;;;;;24.00;99.90;;;;;;5051406;28;19939;-71
2022/03/17 07:02:16;;;;;;;;;;;24.00;99.90;;;;;;5050803;28;20003;-71
2022/03/17 07:04:43;;;;;;;;;;;24.00;99.90;;;;;;5051488;28;19963;-71
2022/03/17 07:07:10;;;;;;;;;;;24.00;99.90;;;;;;5050872;28;20318;-71
2022/03/17 07:09:37;;;;;;;;;;;24.00;99.90;;;;;;5050665;28;19919;-71
2022/03/17 07:12:04;;;;;;;;;;;24.00;99.90;;;;;;5050484;28;19913;-71
2022/03/17 07:14:31;;;;;;;;;;;23.90;99.90;;;;;;5050993;28;19916;-71
2022/03/17 07:16:57;;;;;;;;;;;23.90;99.90;;;;;;5050623;28;19935;-71
2022/03/17 07:19:24;;;;;;;;;;;23.90;99.90;;;;;;5050734;28;19913;-71
2022/03/17 07:21:54;;;;;;;;;;;23.80;99.90;;;;;;5050989;28;20982;-71
2022/03/17 07:24:21;;;;;;;;;;;23.80;99.90;;;;;;5050243;28;19913;-71
2022/03/17 07:26:47;;;;;;;;;;;23.70;99.90;;;;;;5050340;28;19909;-71
2022/03/17 07:29:14;;;;;;;;;;;23.70;99.90;;;;;;5050505;28;19986;-71
2022/03/17 07:31:40;;;;;;;;;;;23.70;99.90;;;;;;5050561;28;19955;-71
2022/03/17 07:34:07;;;;;;;;;;;23.70;99.90;;;;;;5050251;28;20327;-71
2022/03/17 07:36:34;;;;;;;;;;;23.60;99.90;;;;;;5050204;28;19932;-71
2022/03/17 07:39:02;;;;;;;;;;;23.60;99.90;;;;;;5050259;28;19951;-72
2022/03/17 07:41:29;;;;;;;;;;;23.60;99.90;;;;;;5050429;28;19909;-71
2022/03/17 07:43:55;;;;;;;;;;;23.50;99.90;;;;;;5049817;28;19954;-71
2022/03/17 07:46:22;;;;;;;;;;;23.50;99.90;;;;;;5050262;28;19913;-71
2022/03/17 07:48:49;;;;;;;;;;;23.50;99.90;;;;;;5050350;28;19924;-71
2022/03/17 07:51:15;;;;;;;;;;;23.50;99.90;;;;;;5049959;28;20001;-71
2022/03/17 07:53:42;;;;;;;;;;;23.40;99.90;;;;;;5050533;28;19912;-71
2022/03/17 07:56:11;;;;;;;;;;;23.40;99.90;;;;;;5049812;28;20021;-71
2022/03/17 07:58:38;;;;;;;;;;;23.40;99.90;;;;;;5049536;28;19921;-71
2022/03/17 08:01:04;;;;;;;;;;;23.40;99.90;;;;;;5050021;28;19917;-71
2022/03/17 08:03:32;;;;;;;;;;;23.40;99.90;;;;;;5049527;28;19914;-71
2022/03/17 08:05:59;;;;;;;;;;;23.30;99.90;;;;;;5051202;28;20382;-71
2022/03/17 08:08:26;;;;;;;;;;;23.30;99.90;;;;;;5051991;28;19908;-71
2022/03/17 08:10:53;;;;;;;;;;;23.30;99.90;;;;;;5052164;28;19919;-71
2022/03/17 08:13:22;;;;;;;;;;;23.30;99.90;;;;;;5052191;28;19962;-72
2022/03/17 08:15:48;;;;;;;;;;;23.30;99.90;;;;;;5052117;28;19909;-71
2022/03/17 08:18:15;;;;;;;;;;;23.20;99.90;;;;;;5051849;28;19924;-71
2022/03/17 08:20:42;;;;;;;;;;;23.20;99.90;;;;;;5052267;28;19912;-71
2022/03/17 08:23:09;;;;;;;;;;;23.20;99.90;;;;;;5052221;28;20412;-71
2022/03/17 08:25:36;;;;;;;;;;;23.20;99.90;;;;;;5052113;28;19908;-71
2022/03/17 08:28:03;;;;;;;;;;;23.20;99.90;;;;;;5051928;28;19916;-71
2022/03/17 08:30:39;;;;;;;;;;;23.20;99.90;;;;;;5052144;28;19909;-71
2022/03/17 08:33:05;;;;;;;;;;;23.10;99.90;;;;;;5052154;28;20423;-71
2022/03/17 08:35:32;;;;;;;;;;;23.10;99.90;;;;;;5051829;28;19987;-71
2022/03/17 08:37:59;;;;;;;;;;;23.10;99.90;;;;;;5052632;28;19917;-71
2022/03/17 08:40:25;;;;;;;;;;;23.10;99.90;;;;;;5055484;28;19908;-71
2022/03/17 08:42:52;;;;;;;;;;;23.20;99.90;;;;;;5055396;28;20091;-70
2022/03/17 08:50:48;;;;;;;;;;;23.10;99.90;;;;;;5056359;28;19916;-70
2022/03/17 08:53:15;;;;;;;;;;;23.10;99.90;;;;;;5055758;28;19916;-70
2022/03/17 08:55:42;;;;;;;;;;;23.10;99.90;;;;;;5055417;28;19916;-70
2022/03/17 08:58:08;;;;;;;;;;;23.10;99.90;;;;;;5055361;28;20348;-70
2022/03/17 09:00:35;;;;;;;;;;;23.10;99.90;;;;;;5055575;28;19909;-70
2022/03/17 09:03:03;;;;;;;;;;;23.10;99.90;;;;;;5055529;28;19908;-70
2022/03/17 09:05:35;;;;;;;;;;;23.00;99.90;;;;;;5055438;28;19916;-70
2022/03/17 09:08:04;;;;;;;;;;;23.10;99.90;;;;;;5055642;28;19919;-70
2022/03/17 09:10:32;;;;;;;;;;;23.00;99.90;;;;;;5055482;28;19915;-70
2022/03/17 09:13:05;;;;;;;;;;;23.00;99.90;;;;;;5055446;28;20408;-70
2022/03/17 09:15:32;;;;;;;;;;;23.00;99.90;;;;;;5055521;28;19909;-70
2022/03/17 09:18:00;;;;;;;;;;;23.00;99.90;;;;;;5055000;28;19974;-70
2022/03/17 09:20:27;;;;;;;;;;;23.00;99.90;;;;;;5055001;28;19948;-70
2022/03/17 09:22:56;;;;;;;;;;;23.00;99.90;;;;;;5055106;28;19955;-70
2022/03/17 09:25:28;;;;;;;;;;;23.00;99.90;;;;;;5055004;28;19909;-70
2022/03/17 09:27:55;;;;;;;;;;;22.90;99.90;;;;;;5055304;28;19917;-70
2022/03/17 09:30:22;;;;;;;;;;;22.90;99.90;;;;;;5054992;28;20734;-70
2022/03/17 09:32:52;;;;;;;;;;;22.90;99.90;;;;;;5054914;28;19915;-70
2022/03/17 09:35:19;;;;;;;;;;;22.90;99.90;;;;;;5054840;28;19909;-70
2022/03/17 09:37:45;;;;;;;;;;;22.90;99.90;;;;;;5054748;28;19916;-70
2022/03/17 09:40:12;;;;;;;;;;;22.90;99.90;;;;;;5054302;28;20355;-70
2022/03/17 09:42:39;;;;;;;;;;;22.90;99.90;;;;;;5054580;28;20267;-70
2022/03/17 09:45:09;;;;;;;;;;;22.90;99.90;;;;;;5054570;28;20341;-70
2022/03/17 09:47:37;;;;;;;;;;;22.90;99.90;;;;;;5054251;28;20435;-70
2022/03/17 09:50:05;;;;;;;;;;;22.90;99.90;;;;;;5053584;28;20268;-70
2022/03/17 09:52:32;;;;;;;;;;;22.90;99.90;;;;;;5054584;28;20297;-70
2022/03/17 09:54:59;;;;;;;;;;;22.90;99.90;;;;;;5053999;28;19908;-70
2022/03/17 09:57:26;;;;;;;;;;;22.80;99.90;;;;;;5054060;28;19913;-69
2022/03/17 09:59:58;;;;;;;;;;;22.80;99.90;;;;;;5054366;28;19916;-69
2022/03/17 10:02:25;;;;;;;;;;;22.80;99.90;;;;;;5054017;28;19909;-70
2022/03/17 10:04:52;;;;;;;;;;;22.80;99.90;;;;;;5054399;28;20401;-70
2022/03/17 10:07:23;;;;;;;;;;;22.80;99.90;;;;;;5054482;28;20259;-69
2022/03/17 10:09:50;;;;;;;;;;;22.80;99.90;;;;;;5054148;28;20391;-70
2022/03/17 10:12:21;;;;;;;;;;;22.80;99.90;;;;;;5054025;28;19931;-70
2022/03/17 10:14:49;;;;;;;;;;;22.80;99.90;;;;;;5053689;28;19916;-70
2022/03/17 10:17:34;;;;;;;;;;;22.80;99.90;;;;;;5053875;28;20028;-70
2022/03/17 10:20:15;;;;;;;;;;;22.80;99.90;;;;;;5054031;28;19972;-70
2022/03/17 10:22:46;;;;;;;;;;;22.80;99.90;;;;;;5054217;28;19920;-71
2022/03/17 10:25:13;;;;;;;;;;;22.80;99.90;;;;;;5035802;28;20294;-71
2022/03/17 10:27:41;;;;;;;;;;;22.80;99.90;;;;;;5053916;28;20290;-71
2022/03/17 10:30:08;;;;;;;;;;;22.70;99.90;;;;;;5053455;28;19956;-71
2022/03/17 10:32:36;;;;;;;;;;;22.70;99.90;;;;;;5062711;28;19955;-70
2022/03/17 10:35:03;;;;;;;;;;;22.70;99.90;;;;;;5053063;28;19909;-71
2022/03/17 10:37:30;;;;;;;;;;;22.70;99.90;;;;;;5052064;28;19917;-71
2022/03/17 10:39:59;;;;;;;;;;;22.70;99.90;;;;;;5051375;28;19915;-71
2022/03/17 10:42:27;;;;;;;;;;;22.80;99.90;;;;;;5051357;28;19909;-71
2022/03/17 10:45:03;;;;;;;;;;;22.80;99.90;;;;;;5050870;28;19978;-71
2022/03/17 10:47:30;;;;;;;;;;;22.80;99.90;;;;;;5051656;28;20348;-71
2022/03/17 10:50:09;;;;;;;;;;;22.80;99.90;;;;;;5051776;28;19963;-70
2022/03/17 10:53:00;;;;;;;;;;;22.80;99.90;;;;;;5052448;28;20450;-71
2022/03/17 10:55:27;;;;;;;;;;;22.80;99.90;;;;;;5053291;28;19924;-70
2022/03/17 10:57:58;;;;;;;;;;;22.80;99.90;;;;;;5053614;28;19917;-71
2022/03/17 11:00:25;;;;;;;;;;;22.80;99.90;;;;;;5051775;28;19985;-71
2022/03/17 11:02:58;;;;;;;;;;;22.80;99.90;;;;;;5053498;28;19913;-70
2022/03/17 11:05:29;;;;;;;;;;;22.80;99.90;;;;;;5053564;28;19916;-71
2022/03/17 11:07:59;;;;;;;;;;;22.80;99.90;;;;;;5053416;28;20488;-69
2022/03/17 11:10:25;;;;;;;;;;;22.80;99.90;;;;;;5052875;28;19909;-70
2022/03/17 11:12:52;;;;;;;;;;;22.80;99.90;;;;;;5052996;28;20058;-69
2022/03/17 11:15:29;;;;;;;;;;;22.80;99.90;;;;;;5052372;28;19913;-70
2022/03/17 11:17:59;;;;;;;;;;;22.80;99.90;;;;;;5052900;28;20382;-70
2022/03/17 11:20:25;;;;;;;;;;;22.80;99.90;;;;;;5052946;28;19909;-70
2022/03/17 11:23:05;;;;;;;;;;;22.80;99.90;;;;;;5052928;28;19939;-70
2022/03/17 11:25:34;;;;;;;;;;;22.80;99.90;;;;;;5052656;28;20275;-70
2022/03/17 11:28:02;;;;;;;;;;;22.80;99.90;;;;;;5052464;28;20100;-70
2022/03/17 11:30:30;;;;;;;;;;;22.80;99.90;;;;;;5053131;28;19961;-70
2022/03/17 11:32:58;;;;;;;;;;;22.70;99.90;;;;;;5052850;28;19909;-70
2022/03/17 11:35:32;;;;;;;;;;;22.80;99.90;;;;;;5052914;28;19908;-70
2022/03/17 11:38:18;;;;;;;;;;;22.70;99.90;;;;;;5052521;28;19928;-70
2022/03/17 11:41:16;;;;;;;;;;;22.70;99.90;;;;;;5052461;28;20282;-70
2022/03/17 11:43:46;;;;;;;;;;;22.70;99.90;;;;;;4997659;28;20003;-70
2022/03/17 11:46:23;;;;;;;;;;;22.70;99.90;;;;;;5051819;28;19944;-71
2022/03/17 11:48:51;;;;;;;;;;;22.70;99.90;;;;;;5052462;28;20020;-71
2022/03/17 11:51:18;;;;;;;;;;;22.70;99.90;;;;;;5052670;28;20326;-70
2022/03/17 11:53:51;;;;;;;;;;;22.70;99.90;;;;;;5052523;28;19909;-71
2022/03/17 11:56:37;;;;;;;;;;;22.70;99.90;;;;;;5052290;28;19909;-70
2022/03/17 11:59:07;;;;;;;;;;;22.70;99.90;;;;;;5052811;28;19978;-71
2022/03/17 12:01:35;;;;;;;;;;;22.70;99.90;;;;;;5052574;28;19909;-71
2022/03/17 12:04:06;;;;;;;;;;;22.70;99.90;;;;;;5052543;28;19916;-71
2022/03/17 12:06:36;;;;;;;;;;;22.70;99.90;;;;;;5052451;28;19954;-71
2022/03/17 12:09:11;;;;;;;;;;;22.70;99.90;;;;;;5052288;28;20290;-71
2022/03/17 12:11:39;;;;;;;;;;;22.60;99.90;;;;;;5053043;28;19915;-71
2022/03/17 12:14:08;;;;;;;;;;;22.60;99.90;;;;;;5056694;28;19995;-71
2022/03/17 12:16:42;;;;;;;;;;;22.60;99.90;;;;;;5056411;28;19913;-71
2022/03/17 12:19:09;;;;;;;;;;;22.60;99.90;;;;;;5056660;28;20024;-71
2022/03/17 12:21:54;;;;;;;;;;;22.70;99.90;;;;;;5038592;28;19962;-71
2022/03/17 12:24:33;;;;;;;;;;;22.60;99.90;;;;;;5055891;28;20363;-71
2022/03/17 12:27:05;;;;;;;;;;;22.60;99.90;;;;;;5056545;28;20266;-71
2022/03/17 12:29:32;;;;;;;;;;;22.60;99.90;;;;;;5056340;28;19966;-71
2022/03/17 12:32:06;;;;;;;;;;;22.60;99.90;;;;;;5056221;28;19913;-71
2022/03/17 12:34:33;;;;;;;;;;;22.60;99.90;;;;;;5056253;28;19909;-71
2022/03/17 12:37:01;;;;;;;;;;;22.60;99.90;;;;;;5056089;28;19909;-71
2022/03/17 12:39:29;;;;;;;;;;;22.60;99.90;;;;;;5056106;28;19932;-72
2022/03/17 12:41:57;;;;;;;;;;;22.60;99.90;;;;;;5056252;28;19908;-71
2022/03/17 12:44:24;;;;;;;;;;;22.70;99.90;;;;;;5055956;28;19915;-72
2022/03/17 12:46:51;;;;;;;;;;;22.70;99.90;;;;;;5056132;28;19909;-71
2022/03/17 12:49:19;;;;;;;;;;;22.60;99.90;;;;;;5056061;28;20355;-72
2022/03/17 12:51:46;;;;;;;;;;;22.60;99.90;;;;;;5055915;28;19931;-72
2022/03/17 12:54:16;;;;;;;;;;;22.60;99.90;;;;;;5055598;28;19909;-71
2022/03/17 12:56:49;;;;;;;;;;;22.60;99.90;;;;;;5055915;28;19920;-72
2022/03/17 12:59:16;;;;;;;;;;;22.60;99.90;;;;;;5055896;28;20377;-71
2022/03/17 13:01:43;;;;;;;;;;;22.60;99.90;;;;;;5055706;28;20303;-71
2022/03/17 13:04:09;;;;;;;;;;;22.60;99.90;;;;;;5055644;28;19916;-71
2022/03/17 13:06:55;;;;;;;;;;;22.60;99.90;;;;;;5055556;28;19915;-72
2022/03/17 13:09:29;;;;;;;;;;;22.50;99.90;;;;;;5055627;28;20451;-72
2022/03/17 13:14:59;;;;;;;;;;;22.50;99.90;;;;;;5055621;28;19915;-72
2022/03/17 13:17:38;;;;;;;;;;;22.40;99.90;;;;;;5055147;28;20386;-71
2022/03/17 13:20:23;;;;;;;;;;;22.40;99.90;;;;;;5055105;28;19939;-71
2022/03/17 13:23:00;;;;;;;;;;;22.40;99.90;;;;;;5055319;28;19909;-71
2022/03/17 13:25:28;;;;;;;;;;;22.40;99.90;;;;;;5054683;28;19909;-72
2022/03/17 13:27:56;;;;;;;;;;;22.50;99.90;;;;;;5055385;28;19916;-71
2022/03/17 13:30:24;;;;;;;;;;;22.60;99.90;;;;;;5055169;28;19912;-70
2022/03/17 13:33:18;;;;;;;;;;;22.60;99.90;;;;;;5053737;28;19931;-71
2022/03/17 13:35:46;;;;;;;;;;;22.60;99.90;;;;;;5051746;28;20339;-72
2022/03/17 13:38:19;;;;;;;;;;;22.70;99.90;;;;;;5054656;28;19924;-72
2022/03/17 13:40:48;;;;;;;;;;;22.70;99.90;;;;;;5054723;28;19992;-72
2022/03/17 13:43:18;;;;;;;;;;;22.70;99.90;;;;;;5054892;28;19960;-69
2022/03/17 13:45:46;;;;;;;;;;;22.70;99.90;;;;;;5054906;28;20656;-69
2022/03/17 13:48:15;;;;;;;;;;;22.70;99.90;;;;;;5054469;28;19967;-69
2022/03/17 13:50:51;;;;;;;;;;;22.70;99.90;;;;;;5065064;28;19917;-69
2022/03/17 13:53:27;;;;;;;;;;;22.60;99.90;;;;;;5054558;28;19916;-69
2022/03/17 13:55:55;;;;;;;;;;;22.70;99.90;;;;;;5070195;28;19908;-70
2022/03/17 13:58:22;;;;;;;;;;;22.60;99.90;;;;;;5074565;28;19920;-70
2022/03/17 14:00:50;;;;;;;;;;;22.60;99.90;;;;;;5074636;28;19916;-70
2022/03/17 14:03:16;;;;;;;;;;;22.60;99.90;;;;;;5074737;28;19916;-70
2022/03/17 14:06:01;;;;;;;;;;;22.60;99.90;;;;;;5074645;28;19916;-69
2022/03/17 14:08:28;;;;;;;;;;;22.70;99.90;;;;;;5074437;28;19915;-71
2022/03/17 14:10:56;;;;;;;;;;;22.70;99.90;;;;;;5074447;28;20003;-70
2022/03/17 14:13:24;;;;;;;;;;;22.70;99.90;;;;;;5074516;28;19912;-70
2022/03/17 14:15:51;;;;;;;;;;;22.60;99.90;;;;;;5074195;28;20811;-70
2022/03/17 14:18:19;;;;;;;;;;;22.70;99.90;;;;;;5056460;28;20004;-70
2022/03/17 14:20:46;;;;;;;;;;;22.70;99.90;;;;;;5054210;28;19940;-70
2022/03/17 14:25:57;;;;;;;;;;;22.60;99.90;;;;;;5054670;28;19932;-70
2022/03/17 14:28:24;;;;;;;;;;;22.60;99.90;;;;;;5053949;28;19909;-71
2022/03/17 14:30:51;;;;;;;;;;;22.60;99.90;;;;;;5053916;28;19932;-71
2022/03/17 14:33:18;;;;;;;;;;;22.60;99.90;;;;;;5054230;28;19909;-71
2022/03/17 14:35:49;;;;;;;;;;;22.50;99.90;;;;;;5053919;28;19909;-71
2022/03/17 14:38:15;;;;;;;;;;;22.50;99.90;;;;;;5053411;28;19939;-71
2022/03/17 14:40:42;;;;;;;;;;;22.50;99.90;;;;;;5053895;28;19913;-71
2022/03/17 14:43:09;;;;;;;;;;;22.50;99.90;;;;;;5049805;28;19991;-70